createdAt,value
2017-02-21T00:00:13.363Z,0
2017-02-21T00:01:13.741Z,0
2017-02-21T00:02:13.711Z,0
2017-02-21T00:03:13.701Z,0
2017-02-21T00:04:13.694Z,0
2017-02-21T00:05:13.694Z,0
2017-02-21T00:06:13.681Z,0
2017-02-21T00:07:13.680Z,0
2017-02-21T00:08:13.624Z,0
2017-02-21T00:09:13.625Z,0
2017-02-21T00:10:13.613Z,0
2017-02-21T00:11:13.178Z,0
2017-02-21T00:12:13.578Z,0
2017-02-21T00:13:13.549Z,0
2017-02-21T00:14:13.556Z,0
2017-02-21T00:15:13.522Z,0
2017-02-21T00:16:12.755Z,0
2017-02-21T00:17:13.507Z,0
2017-02-21T00:18:13.075Z,0
2017-02-21T00:19:13.067Z,0
2017-02-21T00:20:13.453Z,0
2017-02-21T00:21:13.452Z,0
2017-02-21T00:22:13.413Z,0
2017-02-21T00:23:13.418Z,0
2017-02-21T00:24:12.998Z,0
2017-02-21T00:25:13.395Z,0
2017-02-21T00:26:12.962Z,0
2017-02-21T00:27:12.943Z,0
2017-02-21T00:28:13.320Z,0
2017-02-21T00:29:13.310Z,0
2017-02-21T00:30:12.900Z,0
2017-02-21T00:31:12.889Z,0
2017-02-21T00:32:12.866Z,0
2017-02-21T00:33:13.244Z,0
2017-02-21T00:34:12.438Z,0
2017-02-21T00:35:13.230Z,0
2017-02-21T00:36:12.414Z,0
2017-02-21T00:37:13.424Z,0
2017-02-21T00:38:13.184Z,0
2017-02-21T00:39:13.167Z,0
2017-02-21T00:40:12.750Z,0
2017-02-21T00:41:13.135Z,0
2017-02-21T00:42:13.123Z,0
2017-02-21T00:43:12.708Z,0
2017-02-21T00:44:12.714Z,0
2017-02-21T00:45:12.677Z,0
2017-02-21T00:46:13.057Z,0
2017-02-21T00:47:12.648Z,0
2017-02-21T00:48:12.242Z,0
2017-02-21T00:49:13.022Z,0
2017-02-21T00:50:12.599Z,0
2017-02-21T00:51:12.982Z,0
2017-02-21T00:52:12.961Z,0
2017-02-21T00:53:12.567Z,0
2017-02-21T00:54:12.933Z,0
2017-02-21T00:55:12.529Z,0
2017-02-21T00:56:12.523Z,0
2017-02-21T00:57:12.500Z,0
2017-02-21T00:58:12.889Z,0
2017-02-21T00:59:12.460Z,0
2017-02-21T01:00:12.850Z,0
2017-02-21T01:01:12.827Z,0
2017-02-21T01:02:12.820Z,0
2017-02-21T01:03:12.805Z,0
2017-02-21T01:04:12.787Z,0
2017-02-21T01:05:12.389Z,0
2017-02-21T01:06:12.755Z,0
2017-02-21T01:07:12.786Z,0
2017-02-21T01:08:12.730Z,0
2017-02-21T01:09:12.317Z,0
2017-02-21T01:10:12.689Z,0
2017-02-21T01:11:12.692Z,0
2017-02-21T01:12:12.652Z,0
2017-02-21T01:13:12.655Z,0
2017-02-21T01:14:12.642Z,0
2017-02-21T01:15:12.612Z,0
2017-02-21T01:16:12.610Z,0
2017-02-21T01:17:12.185Z,0
2017-02-21T01:18:12.581Z,0
2017-02-21T01:19:12.561Z,0
2017-02-21T01:20:11.751Z,0
2017-02-21T01:21:12.526Z,0
2017-02-21T01:22:12.110Z,0
2017-02-21T01:23:12.513Z,0
2017-02-21T01:24:12.479Z,0
2017-02-21T01:25:12.497Z,0
2017-02-21T01:26:12.453Z,0
2017-02-21T01:27:12.451Z,0
2017-02-21T01:28:11.626Z,0
2017-02-21T01:29:12.476Z,0
2017-02-21T01:30:11.994Z,0
2017-02-21T01:31:12.364Z,0
2017-02-21T01:32:12.362Z,0
2017-02-21T01:33:12.359Z,0
2017-02-21T01:34:12.336Z,0
2017-02-21T01:35:12.303Z,0
2017-02-21T01:36:12.301Z,0
2017-02-21T01:37:12.281Z,0
2017-02-21T01:38:12.261Z,0
2017-02-21T01:39:12.253Z,0
2017-02-21T01:40:12.245Z,0
2017-02-21T01:41:12.237Z,0
2017-02-21T01:42:11.831Z,0
2017-02-21T01:43:12.195Z,0
2017-02-21T01:44:11.777Z,0
2017-02-21T01:45:12.161Z,0
2017-02-21T01:46:12.154Z,0
2017-02-21T01:47:12.141Z,0
2017-02-21T01:48:11.717Z,0
2017-02-21T01:49:12.109Z,0
2017-02-21T01:50:12.108Z,0
2017-02-21T01:51:12.079Z,0
2017-02-21T01:52:12.074Z,0
2017-02-21T01:53:12.039Z,0
2017-02-21T01:54:11.637Z,0
2017-02-21T01:55:12.024Z,0
2017-02-21T01:56:12.002Z,0
2017-02-21T01:57:11.980Z,0
2017-02-21T01:58:11.961Z,0
2017-02-21T01:59:11.955Z,0
2017-02-21T02:00:11.937Z,0
2017-02-21T02:01:11.930Z,0
2017-02-21T02:02:11.504Z,0
2017-02-21T02:03:11.901Z,0
2017-02-21T02:04:11.868Z,0
2017-02-21T02:05:11.876Z,0
2017-02-21T02:06:11.840Z,0
2017-02-21T02:07:11.822Z,0
2017-02-21T02:08:11.818Z,0
2017-02-21T02:09:11.803Z,0
2017-02-21T02:10:11.389Z,0
2017-02-21T02:11:11.768Z,0
2017-02-21T02:12:11.811Z,0
2017-02-21T02:13:11.402Z,0
2017-02-21T02:14:11.336Z,0
2017-02-21T02:15:11.702Z,0
2017-02-21T02:16:11.704Z,0
2017-02-21T02:17:11.705Z,0
2017-02-21T02:18:11.671Z,0
2017-02-21T02:19:11.673Z,0
2017-02-21T02:20:11.242Z,0
2017-02-21T02:21:11.237Z,0
2017-02-21T02:22:11.215Z,0
2017-02-21T02:23:11.608Z,0
2017-02-21T02:24:11.592Z,0
2017-02-21T02:25:11.170Z,0
2017-02-21T02:26:11.537Z,0
2017-02-21T02:27:11.130Z,0
2017-02-21T02:28:11.508Z,0
2017-02-21T02:29:11.508Z,0
2017-02-21T02:30:11.094Z,0
2017-02-21T02:31:11.478Z,0
2017-02-21T02:32:11.454Z,0
2017-02-21T02:33:11.434Z,0
2017-02-21T02:34:11.419Z,0
2017-02-21T02:35:11.405Z,0
2017-02-21T02:36:11.377Z,0
2017-02-21T02:37:11.570Z,0
2017-02-21T02:38:11.384Z,0
2017-02-21T02:39:10.946Z,0
2017-02-21T02:40:11.342Z,0
2017-02-21T02:41:11.311Z,0
2017-02-21T02:42:11.288Z,0
2017-02-21T02:43:11.275Z,0
2017-02-21T02:44:11.266Z,0
2017-02-21T02:45:10.470Z,0
2017-02-21T02:46:11.229Z,0
2017-02-21T02:47:10.828Z,0
2017-02-21T02:48:11.201Z,0
2017-02-21T02:49:11.194Z,0
2017-02-21T02:50:11.183Z,0
2017-02-21T02:51:10.759Z,0
2017-02-21T02:52:11.142Z,0
2017-02-21T02:53:11.129Z,0
2017-02-21T02:54:10.720Z,0
2017-02-21T02:55:10.699Z,0
2017-02-21T02:56:11.089Z,0
2017-02-21T02:57:10.284Z,0
2017-02-21T02:58:10.662Z,0
2017-02-21T02:59:11.044Z,0
2017-02-21T03:00:10.627Z,0
2017-02-21T03:01:10.998Z,0
2017-02-21T03:02:10.593Z,0
2017-02-21T03:03:10.188Z,0
2017-02-21T03:04:10.558Z,0
2017-02-21T03:05:10.141Z,0
2017-02-21T03:06:10.950Z,0
2017-02-21T03:07:10.525Z,0
2017-02-21T03:08:10.891Z,0
2017-02-21T03:09:10.479Z,0
2017-02-21T03:10:10.459Z,0
2017-02-21T03:11:10.852Z,0
2017-02-21T03:12:10.063Z,0
2017-02-21T03:13:10.426Z,0
2017-02-21T03:14:10.014Z,0
2017-02-21T03:15:10.010Z,0
2017-02-21T03:16:10.369Z,0
2017-02-21T03:17:10.354Z,0
2017-02-21T03:18:10.332Z,0
2017-02-21T03:19:10.755Z,0
2017-02-21T03:20:10.311Z,0
2017-02-21T03:21:10.689Z,0
2017-02-21T03:22:10.310Z,0
2017-02-21T03:23:10.672Z,0
2017-02-21T03:24:10.642Z,0
2017-02-21T03:25:10.618Z,0
2017-02-21T03:26:10.261Z,0
2017-02-21T03:27:10.605Z,0
2017-02-21T03:28:09.778Z,0
2017-02-21T03:29:10.562Z,0
2017-02-21T03:30:10.563Z,0
2017-02-21T03:31:10.528Z,0
2017-02-21T03:32:10.127Z,0
2017-02-21T03:33:10.492Z,0
2017-02-21T03:34:10.487Z,0
2017-02-21T03:35:10.069Z,0
2017-02-21T03:36:10.061Z,0
2017-02-21T03:37:10.453Z,0
2017-02-21T03:38:10.413Z,0
2017-02-21T03:39:10.401Z,0
2017-02-21T03:40:10.003Z,0
2017-02-21T03:41:10.407Z,0
2017-02-21T03:42:09.951Z,0
2017-02-21T03:43:09.963Z,0
2017-02-21T03:44:10.351Z,0
2017-02-21T03:45:10.315Z,0
2017-02-21T03:46:09.894Z,0
2017-02-21T03:47:10.280Z,0
2017-02-21T03:48:10.274Z,0
2017-02-21T03:49:09.862Z,0
2017-02-21T03:50:10.265Z,0
2017-02-21T03:51:10.218Z,0
2017-02-21T03:52:10.207Z,0
2017-02-21T03:53:10.182Z,0
2017-02-21T03:54:09.801Z,0
2017-02-21T03:55:10.190Z,0
2017-02-21T03:56:09.781Z,0
2017-02-21T03:57:10.143Z,0
2017-02-21T03:58:10.111Z,0
2017-02-21T03:59:10.095Z,0
2017-02-21T04:00:10.089Z,0
2017-02-21T04:01:10.048Z,0
2017-02-21T04:02:10.040Z,0
2017-02-21T04:03:09.630Z,0
2017-02-21T04:04:09.603Z,0
2017-02-21T04:05:09.619Z,0
2017-02-21T04:06:09.982Z,0
2017-02-21T04:07:09.959Z,0
2017-02-21T04:08:09.996Z,0
2017-02-21T04:09:09.541Z,0
2017-02-21T04:10:09.904Z,0
2017-02-21T04:11:09.898Z,0
2017-02-21T04:12:09.497Z,0
2017-02-21T04:13:09.891Z,0
2017-02-21T04:14:09.861Z,0
2017-02-21T04:15:09.833Z,0
2017-02-21T04:16:09.823Z,0
2017-02-21T04:17:09.404Z,0
2017-02-21T04:18:09.784Z,0
2017-02-21T04:19:09.775Z,0
2017-02-21T04:20:09.785Z,0
2017-02-21T04:21:09.744Z,0
2017-02-21T04:22:09.721Z,0
2017-02-21T04:23:09.723Z,0
2017-02-21T04:24:09.682Z,0
2017-02-21T04:25:09.692Z,0
2017-02-21T04:26:09.672Z,0
2017-02-21T04:27:09.664Z,0
2017-02-21T04:28:09.248Z,0
2017-02-21T04:29:09.221Z,0
2017-02-21T04:30:09.620Z,0
2017-02-21T04:31:09.604Z,0
2017-02-21T04:32:09.182Z,0
2017-02-21T04:33:09.158Z,0
2017-02-21T04:34:09.537Z,0
2017-02-21T04:35:09.559Z,0
2017-02-21T04:36:09.500Z,0
2017-02-21T04:37:09.882Z,0
2017-02-21T04:38:09.508Z,0
2017-02-21T04:39:09.465Z,0
2017-02-21T04:40:09.036Z,0
2017-02-21T04:41:09.410Z,0
2017-02-21T04:42:09.403Z,0
2017-02-21T04:43:09.386Z,0
2017-02-21T04:44:09.364Z,0
2017-02-21T04:45:09.349Z,0
2017-02-21T04:46:09.367Z,0
2017-02-21T04:47:09.330Z,0
2017-02-21T04:48:08.932Z,0
2017-02-21T04:49:08.906Z,0
2017-02-21T04:50:09.277Z,0
2017-02-21T04:51:09.261Z,0
2017-02-21T04:52:08.850Z,0
2017-02-21T04:53:09.256Z,0
2017-02-21T04:54:09.208Z,0
2017-02-21T04:55:09.204Z,0
2017-02-21T04:56:09.179Z,0
2017-02-21T04:57:09.181Z,0
2017-02-21T04:58:09.168Z,0
2017-02-21T04:59:09.129Z,0
2017-02-21T05:00:08.749Z,0
2017-02-21T05:01:09.104Z,0
2017-02-21T05:02:09.076Z,0
2017-02-21T05:03:09.075Z,0
2017-02-21T05:04:09.041Z,0
2017-02-21T05:05:09.024Z,0
2017-02-21T05:06:09.013Z,0
2017-02-21T05:07:08.997Z,0
2017-02-21T05:08:08.988Z,0
2017-02-21T05:09:08.967Z,0
2017-02-21T05:10:08.150Z,0
2017-02-21T05:11:08.943Z,0
2017-02-21T05:12:08.120Z,0
2017-02-21T05:13:08.898Z,0
2017-02-21T05:14:08.876Z,0
2017-02-21T05:15:08.872Z,0
2017-02-21T05:16:08.453Z,0
2017-02-21T05:17:08.833Z,0
2017-02-21T05:18:08.833Z,0
2017-02-21T05:19:08.819Z,0
2017-02-21T05:20:08.407Z,0
2017-02-21T05:21:08.763Z,0
2017-02-21T05:22:08.757Z,0
2017-02-21T05:23:08.731Z,0
2017-02-21T05:24:08.727Z,0
2017-02-21T05:25:08.714Z,0
2017-02-21T05:26:08.679Z,0
2017-02-21T05:27:08.704Z,0
2017-02-21T05:28:08.267Z,0
2017-02-21T05:29:08.626Z,0
2017-02-21T05:30:08.636Z,0
2017-02-21T05:31:08.616Z,0
2017-02-21T05:32:07.793Z,0
2017-02-21T05:33:08.577Z,0
2017-02-21T05:34:08.557Z,0
2017-02-21T05:35:08.529Z,0
2017-02-21T05:36:08.528Z,0
2017-02-21T05:37:07.703Z,0
2017-02-21T05:38:08.479Z,0
2017-02-21T05:39:08.468Z,0
2017-02-21T05:40:08.453Z,0
2017-02-21T05:41:08.447Z,0
2017-02-21T05:42:08.018Z,0
2017-02-21T05:43:08.410Z,0
2017-02-21T05:44:08.388Z,0
2017-02-21T05:45:08.368Z,0
2017-02-21T05:46:08.352Z,0
2017-02-21T05:47:07.963Z,0
2017-02-21T05:48:08.317Z,0
2017-02-21T05:49:08.332Z,0
2017-02-21T05:50:08.300Z,0
2017-02-21T05:51:08.277Z,0
2017-02-21T05:52:08.294Z,0
2017-02-21T05:53:08.231Z,0
2017-02-21T05:54:07.824Z,0
2017-02-21T05:55:07.820Z,0
2017-02-21T05:56:07.784Z,0
2017-02-21T05:57:07.788Z,0
2017-02-21T05:58:07.758Z,0
2017-02-21T05:59:08.143Z,0
2017-02-21T06:00:07.724Z,0
2017-02-21T06:01:08.119Z,0
2017-02-21T06:02:07.696Z,0
2017-02-21T06:03:07.283Z,0
2017-02-21T06:04:08.049Z,0
2017-02-21T06:05:08.042Z,4
2017-02-21T06:06:08.047Z,4
2017-02-21T06:07:08.029Z,4
2017-02-21T06:08:07.996Z,4
2017-02-21T06:09:07.965Z,4
2017-02-21T06:10:07.965Z,4
2017-02-21T06:11:07.553Z,8
2017-02-21T06:12:07.918Z,4
2017-02-21T06:13:07.908Z,8
2017-02-21T06:14:07.889Z,8
2017-02-21T06:15:07.481Z,12
2017-02-21T06:16:07.573Z,16
2017-02-21T06:17:07.481Z,16
2017-02-21T06:18:07.426Z,20
2017-02-21T06:19:07.798Z,24
2017-02-21T06:20:07.786Z,28
2017-02-21T06:21:07.762Z,36
2017-02-21T06:22:07.367Z,36
2017-02-21T06:23:07.731Z,44
2017-02-21T06:24:07.315Z,48
2017-02-21T06:25:07.306Z,52
2017-02-21T06:26:07.691Z,64
2017-02-21T06:27:07.667Z,68
2017-02-21T06:28:07.646Z,76
2017-02-21T06:29:07.633Z,84
2017-02-21T06:30:07.243Z,92
2017-02-21T06:31:07.621Z,104
2017-02-21T06:32:07.585Z,116
2017-02-21T06:33:07.577Z,124
2017-02-21T06:34:07.547Z,136
2017-02-21T06:35:07.557Z,144
2017-02-21T06:36:07.512Z,148
2017-02-21T06:37:07.514Z,156
2017-02-21T06:38:07.469Z,172
2017-02-21T06:39:07.475Z,184
2017-02-21T06:40:07.458Z,188
2017-02-21T06:41:07.442Z,192
2017-02-21T06:42:07.418Z,200
2017-02-21T06:43:07.394Z,224
2017-02-21T06:44:07.375Z,204
2017-02-21T06:45:07.352Z,208
2017-02-21T06:46:06.974Z,212
2017-02-21T06:47:07.334Z,156
2017-02-21T06:48:07.319Z,176
2017-02-21T06:49:07.288Z,168
2017-02-21T06:50:07.280Z,144
2017-02-21T06:51:07.274Z,152
2017-02-21T06:52:07.251Z,120
2017-02-21T06:53:07.227Z,104
2017-02-21T06:54:06.841Z,164
2017-02-21T06:55:06.813Z,368
2017-02-21T06:56:06.780Z,556
2017-02-21T06:57:06.769Z,736
2017-02-21T06:58:06.754Z,852
2017-02-21T06:59:06.734Z,860
2017-02-21T07:00:06.724Z,856
2017-02-21T07:01:07.118Z,884
2017-02-21T07:02:07.084Z,912
2017-02-21T07:03:07.115Z,916
2017-02-21T07:04:07.053Z,900
2017-02-21T07:05:07.032Z,904
2017-02-21T07:06:07.019Z,920
2017-02-21T07:07:07.045Z,948
2017-02-21T07:08:06.581Z,980
2017-02-21T07:09:06.576Z,1028
2017-02-21T07:10:06.955Z,1104
2017-02-21T07:11:06.942Z,1176
2017-02-21T07:12:06.912Z,1244
2017-02-21T07:13:06.889Z,1312
2017-02-21T07:14:06.868Z,1388
2017-02-21T07:15:06.852Z,1476
2017-02-21T07:16:06.833Z,1564
2017-02-21T07:17:06.826Z,1700
2017-02-21T07:18:06.817Z,1912
2017-02-21T07:19:06.804Z,2096
2017-02-21T07:20:06.767Z,2136
2017-02-21T07:21:06.755Z,2284
2017-02-21T07:22:06.732Z,2424
2017-02-21T07:23:06.344Z,2504
2017-02-21T07:24:06.710Z,2644
2017-02-21T07:25:06.710Z,2776
2017-02-21T07:26:06.273Z,2780
2017-02-21T07:27:06.671Z,2692
2017-02-21T07:28:06.631Z,2708
2017-02-21T07:29:06.623Z,2784
2017-02-21T07:30:06.607Z,2848
2017-02-21T07:31:06.604Z,2868
2017-02-21T07:32:06.568Z,2832
2017-02-21T07:33:06.582Z,2912
2017-02-21T07:34:06.542Z,3068
2017-02-21T07:35:06.526Z,3188
2017-02-21T07:36:06.503Z,3236
2017-02-21T07:37:06.113Z,3212
2017-02-21T07:38:06.482Z,3168
2017-02-21T07:39:06.059Z,3104
2017-02-21T07:40:06.472Z,3080
2017-02-21T07:41:06.445Z,3116
2017-02-21T07:42:06.401Z,3148
2017-02-21T07:43:06.410Z,3140
2017-02-21T07:44:06.406Z,3044
2017-02-21T07:45:06.382Z,3064
2017-02-21T07:46:06.344Z,3176
2017-02-21T07:47:06.327Z,3352
2017-02-21T07:48:06.315Z,3244
2017-02-21T07:49:06.310Z,3336
2017-02-21T07:50:06.283Z,3380
2017-02-21T07:51:06.271Z,3484
2017-02-21T07:52:06.263Z,3576
2017-02-21T07:53:06.246Z,3612
2017-02-21T07:54:06.225Z,3592
2017-02-21T07:55:06.204Z,4228
2017-02-21T07:56:06.189Z,3652
2017-02-21T07:57:05.765Z,3752
2017-02-21T07:58:06.159Z,3816
2017-02-21T07:59:06.135Z,3748
2017-02-21T08:00:06.141Z,3788
2017-02-21T08:01:06.115Z,3932
2017-02-21T08:02:05.685Z,4236
2017-02-21T08:03:05.666Z,4600
2017-02-21T08:04:06.051Z,4828
2017-02-21T08:05:06.058Z,4732
2017-02-21T08:06:06.044Z,4928
2017-02-21T08:07:05.211Z,4716
2017-02-21T08:08:05.983Z,4888
2017-02-21T08:09:05.981Z,5064
2017-02-21T08:10:05.567Z,5180
2017-02-21T08:11:05.958Z,4700
2017-02-21T08:12:05.523Z,4484
2017-02-21T08:13:05.910Z,4440
2017-02-21T08:14:05.489Z,4384
2017-02-21T08:15:05.899Z,4400
2017-02-21T08:16:05.866Z,4640
2017-02-21T08:17:05.851Z,4460
2017-02-21T08:18:05.463Z,4396
2017-02-21T08:19:05.834Z,4748
2017-02-21T08:20:05.811Z,4812
2017-02-21T08:21:05.387Z,4908
2017-02-21T08:22:05.780Z,4972
2017-02-21T08:23:05.753Z,5012
2017-02-21T08:24:05.746Z,5252
2017-02-21T08:25:05.740Z,5520
2017-02-21T08:26:05.716Z,5916
2017-02-21T08:27:05.290Z,6208
2017-02-21T08:28:05.683Z,6016
2017-02-21T08:29:05.656Z,5796
2017-02-21T08:30:05.649Z,5748
2017-02-21T08:31:05.644Z,5412
2017-02-21T08:32:05.623Z,5272
2017-02-21T08:33:05.601Z,5316
2017-02-21T08:34:05.597Z,5596
2017-02-21T08:35:05.568Z,5488
2017-02-21T08:36:05.549Z,5220
2017-02-21T08:37:05.562Z,5208
2017-02-21T08:38:05.731Z,5528
2017-02-21T08:39:05.123Z,6044
2017-02-21T08:40:05.505Z,6276
2017-02-21T08:41:05.481Z,6504
2017-02-21T08:42:05.466Z,6640
2017-02-21T08:43:05.446Z,7148
2017-02-21T08:44:05.057Z,7652
2017-02-21T08:45:05.419Z,6664
2017-02-21T08:46:05.010Z,8648
2017-02-21T08:47:05.411Z,10788
2017-02-21T08:48:04.975Z,13204
2017-02-21T08:49:05.371Z,10740
2017-02-21T08:50:05.339Z,12992
2017-02-21T08:51:05.335Z,12364
2017-02-21T08:52:05.339Z,11848
2017-02-21T08:53:04.892Z,10992
2017-02-21T08:54:04.894Z,8780
2017-02-21T08:55:04.863Z,9328
2017-02-21T08:56:05.298Z,7000
2017-02-21T08:57:04.836Z,9752
2017-02-21T08:58:04.830Z,12588
2017-02-21T08:59:04.810Z,15060
2017-02-21T09:00:05.195Z,13984
2017-02-21T09:01:04.789Z,12740
2017-02-21T09:02:04.765Z,8040
2017-02-21T09:03:04.371Z,12596
2017-02-21T09:04:05.184Z,15552
2017-02-21T09:05:05.136Z,16896
2017-02-21T09:06:05.153Z,16864
2017-02-21T09:07:05.126Z,11460
2017-02-21T09:08:05.138Z,10048
2017-02-21T09:09:05.124Z,8892
2017-02-21T09:10:05.082Z,9016
2017-02-21T09:11:05.071Z,9884
2017-02-21T09:12:05.062Z,13232
2017-02-21T09:13:05.053Z,10540
2017-02-21T09:14:05.020Z,10540
2017-02-21T09:15:05.006Z,10156
2017-02-21T09:16:05.000Z,17376
2017-02-21T09:17:04.201Z,9252
2017-02-21T09:18:04.996Z,9220
2017-02-21T09:19:04.954Z,8416
2017-02-21T09:20:04.946Z,9888
2017-02-21T09:21:04.983Z,10560
2017-02-21T09:22:04.943Z,10240
2017-02-21T09:23:04.918Z,9208
2017-02-21T09:24:04.898Z,8460
2017-02-21T09:25:04.914Z,8232
2017-02-21T09:26:04.474Z,8924
2017-02-21T09:27:04.867Z,9088
2017-02-21T09:28:04.861Z,9164
2017-02-21T09:29:04.868Z,8528
2017-02-21T09:30:04.840Z,6304
2017-02-21T09:31:04.812Z,5808
2017-02-21T09:32:04.811Z,6684
2017-02-21T09:33:04.780Z,7424
2017-02-21T09:34:04.804Z,7720
2017-02-21T09:35:04.767Z,8216
2017-02-21T09:36:04.745Z,7788
2017-02-21T09:37:04.352Z,7320
2017-02-21T09:38:04.721Z,7088
2017-02-21T09:39:04.717Z,7492
2017-02-21T09:40:04.726Z,8728
2017-02-21T09:41:04.687Z,7800
2017-02-21T09:42:04.690Z,6960
2017-02-21T09:43:04.254Z,6604
2017-02-21T09:44:04.246Z,7172
2017-02-21T09:45:04.650Z,8684
2017-02-21T09:46:04.640Z,8684
2017-02-21T09:47:04.602Z,9768
2017-02-21T09:48:04.618Z,11564
2017-02-21T09:49:04.600Z,8872
2017-02-21T09:50:04.589Z,10788
2017-02-21T09:51:04.555Z,11692
2017-02-21T09:52:04.540Z,8360
2017-02-21T09:53:04.556Z,6196
2017-02-21T09:54:04.518Z,7000
2017-02-21T09:55:04.528Z,4852
2017-02-21T09:56:04.491Z,3348
2017-02-21T09:57:04.486Z,3252
2017-02-21T09:58:04.491Z,3848
2017-02-21T09:59:04.464Z,4640
2017-02-21T10:00:04.444Z,6172
2017-02-21T10:01:04.416Z,7456
2017-02-21T10:02:04.418Z,9880
2017-02-21T10:03:04.417Z,6848
2017-02-21T10:04:04.389Z,4768
2017-02-21T10:05:04.374Z,3684
2017-02-21T10:06:03.949Z,3872
2017-02-21T10:07:04.025Z,4116
2017-02-21T10:08:03.924Z,3416
2017-02-21T10:09:04.324Z,3632
2017-02-21T10:10:04.305Z,4384
2017-02-21T10:11:04.287Z,5844
2017-02-21T10:12:04.285Z,6616
2017-02-21T10:13:04.277Z,6020
2017-02-21T10:14:04.243Z,5412
2017-02-21T10:15:04.236Z,4784
2017-02-21T10:16:03.827Z,4884
2017-02-21T10:17:04.221Z,6036
2017-02-21T10:18:04.194Z,7056
2017-02-21T10:19:04.187Z,6728
2017-02-21T10:20:03.790Z,6780
2017-02-21T10:21:04.167Z,7736
2017-02-21T10:22:04.133Z,7900
2017-02-21T10:23:04.120Z,6432
2017-02-21T10:24:04.098Z,6728
2017-02-21T10:25:04.089Z,6408
2017-02-21T10:26:04.091Z,6324
2017-02-21T10:27:04.060Z,6528
2017-02-21T10:28:03.674Z,6280
2017-02-21T10:29:03.661Z,7908
2017-02-21T10:30:04.057Z,7260
2017-02-21T10:31:03.997Z,8012
2017-02-21T10:32:03.993Z,7616
2017-02-21T10:33:03.977Z,5388
2017-02-21T10:34:03.959Z,4616
2017-02-21T10:35:03.972Z,4796
2017-02-21T10:36:03.946Z,5364
2017-02-21T10:37:03.954Z,5636
2017-02-21T10:38:04.115Z,5264
2017-02-21T10:39:03.895Z,5856
2017-02-21T10:40:03.490Z,5196
2017-02-21T10:41:03.875Z,4000
2017-02-21T10:42:03.864Z,3540
2017-02-21T10:43:03.849Z,3384
2017-02-21T10:44:03.427Z,3848
2017-02-21T10:45:03.809Z,4368
2017-02-21T10:46:03.792Z,4652
2017-02-21T10:47:03.777Z,4720
2017-02-21T10:48:03.783Z,4620
2017-02-21T10:49:03.754Z,3988
2017-02-21T10:50:03.329Z,4028
2017-02-21T10:51:03.343Z,4380
2017-02-21T10:52:03.707Z,5256
2017-02-21T10:53:03.723Z,4760
2017-02-21T10:54:03.276Z,4512
2017-02-21T10:55:03.679Z,4460
2017-02-21T10:56:03.662Z,3616
2017-02-21T10:57:03.653Z,2860
2017-02-21T10:58:02.856Z,2692
2017-02-21T10:59:03.226Z,2768
2017-02-21T11:00:03.192Z,2704
2017-02-21T11:01:03.187Z,2444
2017-02-21T11:02:03.574Z,2592
2017-02-21T11:03:03.558Z,2824
2017-02-21T11:04:03.152Z,2828
2017-02-21T11:05:03.525Z,2408
2017-02-21T11:06:03.523Z,2080
2017-02-21T11:07:03.519Z,2144
2017-02-21T11:08:03.515Z,2232
2017-02-21T11:09:03.064Z,2384
2017-02-21T11:10:03.446Z,2660
2017-02-21T11:11:03.461Z,3024
2017-02-21T11:12:03.430Z,3080
2017-02-21T11:13:03.405Z,3456
2017-02-21T11:14:03.397Z,3916
2017-02-21T11:15:03.372Z,3776
2017-02-21T11:16:03.358Z,4272
2017-02-21T11:17:02.962Z,5772
2017-02-21T11:18:03.323Z,8068
2017-02-21T11:19:03.323Z,7952
2017-02-21T11:20:03.322Z,8812
2017-02-21T11:21:03.286Z,14776
2017-02-21T11:22:03.272Z,10256
2017-02-21T11:23:02.887Z,7836
2017-02-21T11:24:03.251Z,8996
2017-02-21T11:25:03.236Z,7656
2017-02-21T11:26:03.224Z,5984
2017-02-21T11:27:02.807Z,7872
2017-02-21T11:28:02.781Z,9100
2017-02-21T11:29:02.774Z,8424
2017-02-21T11:30:03.154Z,6340
2017-02-21T11:31:03.145Z,9116
2017-02-21T11:32:03.125Z,13396
2017-02-21T11:33:03.163Z,21248
2017-02-21T11:34:03.107Z,32032
2017-02-21T11:35:03.083Z,25952
2017-02-21T11:36:02.712Z,23072
2017-02-21T11:37:02.682Z,16352
2017-02-21T11:38:03.051Z,23488
2017-02-21T11:39:02.636Z,16480
2017-02-21T11:40:03.018Z,20288
2017-02-21T11:41:02.636Z,31840
2017-02-21T11:42:03.012Z,28320
2017-02-21T11:43:02.217Z,26272
2017-02-21T11:44:02.999Z,29472
2017-02-21T11:45:02.987Z,20384
2017-02-21T11:46:02.976Z,13296
2017-02-21T11:47:02.944Z,19360
2017-02-21T11:48:02.936Z,15032
2017-02-21T11:49:02.928Z,15188
2017-02-21T11:50:02.917Z,25440
2017-02-21T11:51:02.501Z,29696
2017-02-21T11:52:02.917Z,25408
2017-02-21T11:53:02.888Z,14260
2017-02-21T11:54:02.483Z,27616
2017-02-21T11:55:02.873Z,30976
2017-02-21T11:56:02.860Z,36512
2017-02-21T11:57:02.069Z,38592
2017-02-21T11:58:02.845Z,41280
2017-02-21T11:59:02.824Z,42336
2017-02-21T12:00:02.832Z,17824
2017-02-21T12:01:02.817Z,49216
2017-02-21T12:02:02.824Z,47968
2017-02-21T12:03:02.412Z,26368
2017-02-21T12:04:02.793Z,42688
2017-02-21T12:05:02.397Z,35488
2017-02-21T12:06:02.021Z,32416
2017-02-21T12:07:02.778Z,26720
2017-02-21T12:08:02.389Z,30016
2017-02-21T12:09:02.365Z,31744
2017-02-21T12:10:02.348Z,34624
2017-02-21T12:11:02.336Z,35648
2017-02-21T12:12:02.734Z,15800
2017-02-21T12:13:01.946Z,33600
2017-02-21T12:14:02.333Z,15096
2017-02-21T12:15:02.733Z,17440
2017-02-21T12:16:02.320Z,18400
2017-02-21T12:17:02.704Z,37280
2017-02-21T12:18:02.326Z,46720
2017-02-21T12:19:02.703Z,32384
2017-02-21T12:20:02.684Z,19520
2017-02-21T12:21:02.679Z,19552
2017-02-21T12:22:02.669Z,21152
2017-02-21T12:23:02.670Z,21632
2017-02-21T12:24:02.666Z,45984
2017-02-21T12:25:02.271Z,42848
2017-02-21T12:26:02.288Z,40224
2017-02-21T12:27:02.640Z,36448
2017-02-21T12:28:02.650Z,17728
2017-02-21T12:29:02.625Z,23008
2017-02-21T12:30:02.638Z,18016
2017-02-21T12:31:02.620Z,13300
2017-02-21T12:32:01.832Z,12872
2017-02-21T12:33:02.611Z,13092
2017-02-21T12:34:02.618Z,14520
2017-02-21T12:35:02.216Z,27456
2017-02-21T12:36:02.610Z,45312
2017-02-21T12:37:02.585Z,46144
2017-02-21T12:38:02.783Z,44224
2017-02-21T12:39:02.178Z,44160
2017-02-21T12:40:02.578Z,15736
2017-02-21T12:41:02.178Z,48288
2017-02-21T12:42:02.572Z,50144
2017-02-21T12:43:02.151Z,41504
2017-02-21T12:44:02.166Z,41152
2017-02-21T12:45:02.160Z,18592
2017-02-21T12:46:02.554Z,46272
2017-02-21T12:47:02.524Z,45376
2017-02-21T12:48:02.522Z,46368
2017-02-21T12:49:02.137Z,47264
2017-02-21T12:50:02.133Z,41344
2017-02-21T12:51:02.114Z,25440
2017-02-21T12:52:02.103Z,13420
2017-02-21T12:53:02.121Z,13396
2017-02-21T12:54:02.507Z,8312
2017-02-21T12:55:02.497Z,8584
2017-02-21T12:56:02.097Z,7484
2017-02-21T12:57:02.479Z,6824
2017-02-21T12:58:02.096Z,6332
2017-02-21T12:59:02.483Z,4724
2017-02-21T13:00:02.087Z,3976
2017-02-21T13:01:02.063Z,3932
2017-02-21T13:02:02.089Z,3792
2017-02-21T13:03:02.085Z,4492
2017-02-21T13:04:02.065Z,6100
2017-02-21T13:05:02.047Z,9040
2017-02-21T13:06:02.034Z,10184
2017-02-21T13:07:02.426Z,8220
2017-02-21T13:08:02.025Z,7980
2017-02-21T13:09:02.055Z,11228
2017-02-21T13:10:02.008Z,8644
2017-02-21T13:11:01.993Z,6432
2017-02-21T13:12:02.392Z,4892
2017-02-21T13:13:02.007Z,5432
2017-02-21T13:14:02.367Z,8600
2017-02-21T13:15:01.582Z,7308
2017-02-21T13:16:02.371Z,5528
2017-02-21T13:17:02.346Z,5104
2017-02-21T13:18:02.341Z,6360
2017-02-21T13:19:01.948Z,32896
2017-02-21T13:20:02.329Z,9040
2017-02-21T13:21:01.908Z,8196
2017-02-21T13:22:02.309Z,7808
2017-02-21T13:23:02.305Z,21632
2017-02-21T13:24:02.298Z,31552
2017-02-21T13:25:01.870Z,10412
2017-02-21T13:26:01.858Z,12044
2017-02-21T13:27:02.264Z,30336
2017-02-21T13:28:01.847Z,14044
2017-02-21T13:29:02.227Z,10340
2017-02-21T13:30:02.217Z,31648
2017-02-21T13:31:02.208Z,32448
2017-02-21T13:32:02.199Z,30560
2017-02-21T13:33:02.267Z,31232
2017-02-21T13:34:01.813Z,30720
2017-02-21T13:35:01.780Z,30624
2017-02-21T13:36:01.786Z,30912
2017-02-21T13:37:01.768Z,30368
2017-02-21T13:38:01.748Z,32384
2017-02-21T13:39:01.746Z,32672
2017-02-21T13:40:02.144Z,33792
2017-02-21T13:41:01.732Z,35360
2017-02-21T13:42:02.119Z,35808
2017-02-21T13:43:02.162Z,35488
2017-02-21T13:44:02.114Z,29984
2017-02-21T13:45:01.332Z,10196
2017-02-21T13:46:01.298Z,10964
2017-02-21T13:47:01.706Z,9972
2017-02-21T13:48:02.084Z,9268
2017-02-21T13:49:01.682Z,9232
2017-02-21T13:50:01.675Z,10572
2017-02-21T13:51:01.670Z,13820
2017-02-21T13:52:02.068Z,36800
2017-02-21T13:53:02.052Z,11324